createdAt,value
2018-03-06T00:00:45.882Z,137.47
2018-03-06T00:03:12.267Z,141.77
2018-03-06T00:05:38.662Z,150.33
2018-03-06T00:08:05.789Z,166.43
2018-03-06T00:10:32.262Z,148.70
2018-03-06T00:12:58.709Z,171.27
2018-03-06T00:15:25.130Z,155.00
2018-03-06T00:17:51.495Z,154.83
2018-03-06T00:20:17.864Z,146.53
2018-03-06T00:22:44.998Z,143.43
2018-03-06T00:25:13.068Z,143.90
2018-03-06T00:27:40.238Z,150.77
2018-03-06T00:30:07.359Z,170.50
2018-03-06T00:32:33.751Z,166.67
2018-03-06T00:35:00.129Z,176.30
2018-03-06T00:37:26.554Z,164.43
2018-03-06T00:39:52.936Z,142.77
2018-03-06T00:42:19.321Z,160.67
2018-03-06T00:44:45.698Z,172.13
2018-03-06T00:47:12.112Z,152.80
2018-03-06T00:49:39.214Z,181.90
2018-03-06T00:52:06.343Z,156.50
2018-03-06T00:54:33.467Z,150.23
2018-03-06T00:57:00.590Z,140.87
2018-03-06T00:59:26.966Z,186.37
2018-03-06T01:01:53.346Z,179.27
2018-03-06T01:04:19.751Z,162.33
2018-03-06T01:06:46.137Z,150.83
2018-03-06T01:09:13.271Z,189.00
2018-03-06T01:11:39.639Z,181.60
2018-03-06T01:14:06.029Z,167.13
2018-03-06T01:16:32.418Z,170.13
2018-03-06T01:18:58.807Z,162.53
2018-03-06T01:21:25.997Z,161.20
2018-03-06T01:23:52.374Z,141.47
2018-03-06T01:26:18.824Z,157.60
2018-03-06T01:28:45.397Z,149.93
2018-03-06T01:31:11.774Z,157.93
2018-03-06T01:33:38.158Z,183.23
2018-03-06T01:36:04.556Z,157.00
2018-03-06T01:38:31.663Z,193.70
2018-03-06T01:40:58.034Z,168.60
2018-03-06T01:43:24.400Z,202.33
2018-03-06T01:45:50.798Z,196.07
2018-03-06T01:48:17.931Z,169.83
2018-03-06T01:50:44.344Z,194.00
2018-03-06T01:53:10.710Z,233.87
2018-03-06T01:55:37.822Z,206.50
2018-03-06T01:58:04.196Z,170.50
2018-03-06T02:00:31.316Z,173.27
2018-03-06T02:02:57.698Z,184.40
2018-03-06T02:05:24.071Z,184.13
2018-03-06T02:07:50.444Z,173.53
2018-03-06T02:10:17.585Z,205.87
2018-03-06T02:12:44.712Z,212.77
2018-03-06T02:15:11.101Z,271.07
2018-03-06T02:17:37.471Z,203.90
2018-03-06T02:20:04.682Z,195.60
2018-03-06T02:22:31.065Z,209.80
2018-03-06T02:24:57.454Z,206.20
2018-03-06T02:27:23.880Z,196.10
2018-03-06T02:30:03.125Z,223.23
2018-03-06T02:32:29.636Z,240.63
2018-03-06T02:34:56.045Z,234.10
2018-03-06T02:37:23.187Z,232.57
2018-03-06T02:39:50.316Z,217.10
2018-03-06T02:42:16.694Z,222.80
2018-03-06T02:44:43.083Z,202.67
2018-03-06T02:47:09.507Z,245.43
2018-03-06T02:49:35.836Z,210.70
2018-03-06T02:52:02.274Z,243.57
2018-03-06T02:54:28.656Z,192.07
2018-03-06T02:56:55.026Z,241.77
2018-03-06T02:59:21.394Z,228.50
2018-03-06T03:01:48.566Z,227.70
2018-03-06T03:04:15.686Z,184.57
2018-03-06T03:06:42.067Z,197.03
2018-03-06T03:09:08.462Z,197.97
2018-03-06T03:11:35.599Z,184.53
2018-03-06T03:14:01.995Z,192.07
2018-03-06T03:16:28.376Z,187.33
2018-03-06T03:18:55.489Z,175.20
2018-03-06T03:21:21.880Z,171.23
2018-03-06T03:23:48.289Z,157.73
2018-03-06T03:26:15.410Z,148.80
2018-03-06T03:28:41.777Z,164.77
2018-03-06T03:31:08.899Z,155.10
2018-03-06T03:33:35.297Z,147.33
2018-03-06T03:36:01.677Z,128.37
2018-03-06T03:38:28.807Z,146.27
2018-03-06T03:40:55.184Z,119.07
2018-03-06T03:43:21.547Z,136.30
2018-03-06T03:45:48.022Z,139.63
2018-03-06T03:48:15.043Z,121.37
2018-03-06T03:50:42.910Z,129.00
2018-03-06T03:53:09.357Z,124.20
2018-03-06T03:55:35.811Z,122.23
2018-03-06T03:58:02.955Z,126.90
2018-03-06T04:00:30.072Z,129.20
2018-03-06T04:02:56.806Z,111.80
2018-03-06T04:05:23.186Z,117.33
2018-03-06T04:07:49.563Z,123.70
2018-03-06T04:10:15.976Z,119.03
2018-03-06T04:12:42.354Z,111.10
2018-03-06T04:15:08.762Z,116.53
2018-03-06T04:17:35.150Z,119.33
2018-03-06T04:20:01.542Z,119.93
2018-03-06T04:22:27.951Z,103.47
2018-03-06T04:24:54.334Z,117.70
2018-03-06T04:27:21.460Z,127.70
2018-03-06T04:29:47.827Z,347.43
2018-03-06T04:32:14.194Z,222.20
2018-03-06T04:34:40.574Z,112.80
2018-03-06T04:37:07.691Z,130.37
2018-03-06T04:39:34.094Z,115.47
2018-03-06T04:42:00.486Z,119.40
2018-03-06T04:44:26.889Z,108.67
2018-03-06T04:46:53.267Z,99.03
2018-03-06T04:49:19.653Z,105.67
2018-03-06T04:51:46.029Z,97.87
2018-03-06T04:54:12.579Z,102.13
2018-03-06T04:56:39.055Z,116.33
2018-03-06T04:59:05.426Z,95.87
2018-03-06T05:01:31.813Z,94.30
2018-03-06T05:03:58.213Z,106.70
2018-03-06T05:06:24.656Z,105.00
2018-03-06T05:08:51.042Z,100.00
2018-03-06T05:11:18.189Z,104.93
2018-03-06T05:13:45.303Z,106.43
2018-03-06T05:16:11.675Z,101.30
2018-03-06T05:18:38.805Z,108.23
2018-03-06T05:21:05.209Z,107.47
2018-03-06T05:23:31.579Z,92.90
2018-03-06T05:25:58.695Z,105.00
2018-03-06T05:28:25.094Z,100.13
2018-03-06T05:30:51.479Z,101.70
2018-03-06T05:33:17.859Z,94.40
2018-03-06T05:35:44.261Z,94.73
2018-03-06T05:38:11.392Z,107.17
2018-03-06T05:40:38.574Z,112.50
2018-03-06T05:43:04.970Z,91.87
2018-03-06T05:45:31.348Z,87.70
2018-03-06T05:47:57.722Z,91.30
2018-03-06T05:50:24.109Z,90.23
2018-03-06T05:52:50.474Z,90.97
2018-03-06T05:55:16.848Z,91.40
2018-03-06T05:57:44.010Z,104.47
2018-03-06T06:00:10.446Z,81.00
2018-03-06T06:02:37.549Z,89.47
2018-03-06T06:05:03.942Z,95.83
2018-03-06T06:07:30.511Z,95.37
2018-03-06T06:09:56.914Z,100.50
2018-03-06T06:12:23.295Z,92.53
2018-03-06T06:14:49.732Z,90.63
2018-03-06T06:17:16.134Z,104.80
2018-03-06T06:19:42.523Z,102.67
2018-03-06T06:22:08.869Z,96.00
2018-03-06T06:24:35.349Z,99.17
2018-03-06T06:27:03.097Z,96.13
2018-03-06T06:29:29.433Z,90.40
2018-03-06T06:31:55.775Z,118.40
2018-03-06T06:34:22.135Z,101.63
2018-03-06T06:36:48.540Z,107.60
2018-03-06T06:39:15.453Z,100.03
2018-03-06T06:41:41.834Z,95.20
2018-03-06T06:44:08.930Z,102.10
2018-03-06T06:46:35.280Z,105.30
2018-03-06T06:49:01.612Z,109.97
2018-03-06T06:51:27.976Z,94.93
2018-03-06T06:53:54.344Z,92.23
2018-03-06T06:56:20.693Z,98.13
2018-03-06T06:58:47.025Z,107.87
2018-03-06T07:01:13.387Z,100.63
2018-03-06T07:03:40.033Z,112.67
2018-03-06T07:06:06.388Z,102.77
2018-03-06T07:08:33.493Z,97.93
2018-03-06T07:10:59.891Z,106.97
2018-03-06T07:13:26.249Z,121.23
2018-03-06T07:15:52.582Z,103.90
2018-03-06T07:18:18.907Z,104.73
2018-03-06T07:20:45.212Z,96.83
2018-03-06T07:23:11.549Z,98.10
2018-03-06T07:25:37.891Z,109.20
2018-03-06T07:28:04.209Z,107.90
2018-03-06T07:30:30.542Z,116.20
2018-03-06T07:32:56.872Z,120.03
2018-03-06T07:35:23.213Z,96.10
2018-03-06T07:37:49.529Z,132.30
2018-03-06T07:40:15.865Z,133.37
2018-03-06T07:42:42.211Z,100.23
2018-03-06T07:45:08.548Z,112.30
2018-03-06T07:47:34.882Z,95.23
2018-03-06T07:50:01.214Z,96.43
2018-03-06T07:52:27.541Z,100.93
2018-03-06T07:54:53.868Z,103.43
2018-03-06T07:57:20.190Z,104.90
2018-03-06T07:59:46.529Z,92.70
2018-03-06T08:02:12.885Z,112.77
2018-03-06T08:04:39.279Z,108.10
2018-03-06T08:07:05.614Z,99.13
2018-03-06T08:09:32.004Z,110.50
2018-03-06T08:11:58.361Z,113.13
2018-03-06T08:14:24.730Z,127.37
2018-03-06T08:16:51.121Z,101.97
2018-03-06T08:19:17.458Z,81.83
2018-03-06T08:21:43.793Z,92.23
2018-03-06T08:24:10.172Z,95.40
2018-03-06T08:26:36.547Z,95.37
2018-03-06T08:29:02.930Z,83.80
2018-03-06T08:31:29.307Z,87.13
2018-03-06T08:33:55.671Z,91.33
2018-03-06T08:36:21.989Z,86.07
2018-03-06T08:38:48.363Z,88.20
2018-03-06T08:41:15.467Z,78.87
2018-03-06T08:43:41.819Z,74.80
2018-03-06T08:46:08.198Z,80.47
2018-03-06T08:48:34.544Z,81.27
2018-03-06T08:51:00.874Z,79.57
2018-03-06T08:53:27.210Z,86.07
2018-03-06T08:55:53.619Z,103.63
2018-03-06T08:58:20.918Z,83.37
2018-03-06T09:00:47.259Z,89.87
2018-03-06T09:03:13.568Z,105.33
2018-03-06T09:05:39.958Z,90.70
2018-03-06T09:08:07.055Z,68.67
2018-03-06T09:10:33.388Z,75.80
2018-03-06T09:12:59.705Z,56.57
2018-03-06T09:15:26.030Z,76.63
2018-03-06T09:17:52.354Z,65.70
2018-03-06T09:20:18.683Z,74.10
2018-03-06T09:22:45.747Z,65.60
2018-03-06T09:25:12.077Z,64.20
2018-03-06T09:27:39.136Z,79.87
2018-03-06T09:30:06.238Z,68.00
2018-03-06T09:32:33.298Z,61.27
2018-03-06T09:35:00.609Z,67.47
2018-03-06T09:37:26.954Z,59.70
2018-03-06T09:42:19.638Z,58.80
2018-03-06T09:44:45.966Z,55.77
2018-03-06T09:47:13.210Z,55.97
2018-03-06T09:49:39.610Z,54.70
2018-03-06T09:52:05.984Z,50.30
2018-03-06T09:54:32.362Z,70.40
2018-03-06T09:56:58.748Z,54.53
2018-03-06T09:59:25.091Z,54.57
2018-03-06T10:01:51.685Z,61.47
2018-03-06T10:04:18.050Z,65.03
2018-03-06T10:06:44.410Z,52.90
2018-03-06T10:09:10.770Z,146.30
2018-03-06T10:11:38.112Z,57.90
2018-03-06T10:14:04.476Z,59.87
2018-03-06T10:16:31.648Z,60.73
2018-03-06T10:18:58.021Z,58.00
2018-03-06T10:21:24.397Z,69.97
2018-03-06T10:23:51.516Z,64.57
2018-03-06T10:26:18.616Z,61.00
2018-03-06T10:28:44.993Z,72.67
2018-03-06T10:31:11.395Z,109.60
2018-03-06T10:33:37.724Z,112.10
2018-03-06T10:36:04.148Z,73.17
2018-03-06T10:38:30.490Z,193.77
2018-03-06T10:40:56.813Z,190.80
2018-03-06T10:43:23.141Z,174.67
2018-03-06T10:45:49.548Z,99.57
2018-03-06T10:48:16.696Z,85.47
2018-03-06T10:50:43.264Z,70.00
2018-03-06T10:53:09.591Z,75.53
2018-03-06T10:55:35.937Z,63.07
2018-03-06T10:58:02.930Z,129.63
2018-03-06T11:00:36.228Z,101.93
2018-03-06T11:03:03.336Z,67.57
2018-03-06T11:05:29.729Z,46.50
2018-03-06T11:07:56.065Z,52.47
2018-03-06T11:10:22.400Z,54.23
2018-03-06T11:12:48.711Z,47.53
2018-03-06T11:15:15.783Z,55.60
2018-03-06T11:17:42.118Z,67.63
2018-03-06T11:20:08.440Z,49.70
2018-03-06T11:22:34.770Z,51.10
2018-03-06T11:25:01.117Z,43.50
2018-03-06T11:27:27.476Z,51.53
2018-03-06T11:29:53.832Z,50.80
2018-03-06T11:32:20.919Z,47.67
2018-03-06T11:34:47.263Z,46.27
2018-03-06T11:37:13.646Z,41.50
2018-03-06T11:39:40.737Z,44.97
2018-03-06T11:42:07.072Z,41.80
2018-03-06T11:44:33.465Z,45.03
2018-03-06T11:46:59.821Z,63.20
2018-03-06T11:49:26.198Z,47.80
2018-03-06T11:51:52.583Z,45.17
2018-03-06T11:54:18.952Z,40.43
2018-03-06T11:56:45.327Z,41.70
2018-03-06T11:59:11.690Z,41.70
2018-03-06T12:01:38.058Z,44.50
2018-03-06T12:04:05.147Z,44.83
2018-03-06T12:06:31.497Z,49.50
2018-03-06T12:08:57.874Z,43.23
2018-03-06T12:11:24.228Z,53.17
2018-03-06T12:13:50.558Z,62.50
2018-03-06T12:16:17.710Z,42.50
2018-03-06T12:18:44.070Z,121.13
2018-03-06T12:21:10.442Z,57.03
2018-03-06T12:23:37.542Z,55.27
2018-03-06T12:26:03.915Z,56.20
2018-03-06T12:28:30.249Z,34.87
2018-03-06T12:30:56.610Z,75.73
2018-03-06T12:33:22.951Z,53.10
2018-03-06T12:35:49.290Z,62.00
2018-03-06T12:38:15.699Z,58.30
2018-03-06T12:40:42.821Z,63.30
2018-03-06T12:43:09.199Z,39.33
2018-03-06T12:45:35.592Z,39.53
2018-03-06T12:48:02.736Z,42.30
2018-03-06T12:50:29.871Z,41.77
2018-03-06T12:52:56.991Z,36.33
2018-03-06T12:55:23.388Z,36.00
2018-03-06T12:57:50.534Z,42.03
2018-03-06T13:00:17.906Z,50.57
2018-03-06T13:02:44.298Z,70.73
2018-03-06T13:05:10.696Z,40.13
2018-03-06T13:07:37.068Z,81.90
2018-03-06T13:10:03.480Z,56.77
2018-03-06T13:12:29.861Z,117.50
2018-03-06T13:14:56.236Z,95.03
2018-03-06T13:17:22.607Z,100.77
2018-03-06T13:19:49.780Z,103.40
2018-03-06T13:22:16.226Z,89.37
2018-03-06T13:24:42.606Z,69.20
2018-03-06T13:27:10.486Z,40.90
2018-03-06T13:29:36.915Z,53.93
2018-03-06T13:32:04.172Z,52.80
2018-03-06T13:34:30.588Z,51.40
2018-03-06T13:36:57.716Z,46.40
2018-03-06T13:39:24.177Z,41.23
2018-03-06T13:41:51.330Z,68.80
2018-03-06T13:44:18.456Z,44.10
2018-03-06T13:46:44.869Z,42.37
2018-03-06T13:49:11.277Z,30.57
2018-03-06T13:51:37.662Z,41.80
2018-03-06T13:54:04.028Z,41.63
2018-03-06T13:56:31.154Z,50.00
2018-03-06T13:58:58.287Z,107.27
2018-03-06T14:01:24.680Z,53.17
2018-03-06T14:03:51.066Z,147.80
2018-03-06T14:06:18.183Z,116.10
2018-03-06T14:08:44.723Z,75.13
2018-03-06T14:11:11.134Z,42.83
2018-03-06T14:13:37.503Z,69.70
2018-03-06T14:16:03.947Z,47.50
2018-03-06T14:18:31.086Z,61.17
2018-03-06T14:20:57.481Z,66.83
2018-03-06T14:23:23.876Z,46.07
2018-03-06T14:25:50.273Z,123.87
2018-03-06T14:28:16.681Z,37.37
2018-03-06T14:30:43.102Z,32.97
2018-03-06T14:33:09.504Z,41.13
2018-03-06T14:35:36.619Z,73.27
2018-03-06T14:38:03.002Z,36.43
2018-03-06T14:40:29.402Z,58.57
2018-03-06T14:42:56.663Z,57.87
2018-03-06T14:45:23.872Z,71.10
2018-03-06T14:47:50.246Z,41.70
2018-03-06T14:50:17.519Z,28.83
2018-03-06T14:52:43.912Z,27.77
2018-03-06T14:55:10.284Z,44.20
2018-03-06T14:57:37.419Z,36.50
2018-03-06T15:00:03.899Z,40.07
2018-03-06T15:02:30.295Z,32.77
2018-03-06T15:04:56.761Z,32.93
2018-03-06T15:07:23.164Z,29.00
2018-03-06T15:09:49.547Z,26.67
2018-03-06T15:12:15.932Z,35.10
2018-03-06T15:14:42.327Z,36.33
2018-03-06T15:17:09.455Z,109.70
2018-03-06T15:19:35.822Z,42.30
2018-03-06T15:22:02.998Z,36.80
2018-03-06T15:24:29.379Z,32.90
2018-03-06T15:26:55.756Z,39.90
2018-03-06T15:29:22.159Z,41.20
2018-03-06T15:31:49.292Z,27.60
2018-03-06T15:34:15.703Z,32.47
2018-03-06T15:36:42.078Z,38.70
2018-03-06T15:39:09.201Z,34.70
2018-03-06T15:41:35.568Z,30.00
2018-03-06T15:44:02.779Z,31.17
2018-03-06T15:46:29.253Z,37.90
2018-03-06T15:48:56.379Z,26.07
2018-03-06T15:51:22.763Z,29.10
2018-03-06T15:53:49.173Z,30.17
2018-03-06T15:56:15.552Z,26.60
2018-03-06T15:58:41.979Z,30.60
2018-03-06T16:01:08.373Z,31.93
2018-03-06T16:03:35.495Z,36.90
2018-03-06T16:06:02.656Z,29.77
2018-03-06T16:08:29.754Z,38.70
2018-03-06T16:10:56.142Z,37.73
2018-03-06T16:13:23.260Z,36.97
2018-03-06T16:15:49.647Z,37.90
2018-03-06T16:18:16.022Z,33.87
2018-03-06T16:20:42.404Z,36.70
2018-03-06T16:23:08.832Z,34.53
2018-03-06T16:25:35.254Z,45.70
2018-03-06T16:28:02.390Z,42.03
2018-03-06T16:30:29.529Z,46.17
2018-03-06T16:32:55.960Z,36.33
2018-03-06T16:35:23.124Z,37.50
2018-03-06T16:37:50.272Z,39.23
2018-03-06T16:40:17.472Z,33.40
2018-03-06T16:42:43.895Z,39.90
2018-03-06T16:45:10.259Z,33.93
2018-03-06T16:47:36.760Z,34.27
2018-03-06T16:50:03.989Z,52.53
2018-03-06T16:52:31.103Z,88.17
2018-03-06T16:54:57.757Z,71.90
2018-03-06T16:57:24.277Z,58.83
2018-03-06T16:59:50.684Z,95.13
2018-03-06T17:02:17.105Z,62.20
2018-03-06T17:04:43.540Z,48.43
2018-03-06T17:07:09.913Z,50.20
2018-03-06T17:09:37.080Z,47.50
2018-03-06T17:12:04.204Z,144.47
2018-03-06T17:14:30.611Z,423.53
2018-03-06T17:16:57.051Z,280.37
2018-03-06T17:19:23.467Z,195.03
2018-03-06T17:21:49.844Z,137.37
2018-03-06T17:24:16.215Z,94.67
2018-03-06T17:26:42.628Z,64.20
2018-03-06T17:29:09.075Z,61.63
2018-03-06T17:31:35.465Z,56.37
2018-03-06T17:34:01.868Z,117.90
2018-03-06T17:36:28.334Z,140.00
2018-03-06T17:38:55.485Z,155.53
2018-03-06T17:41:21.883Z,685.57
2018-03-06T17:43:48.363Z,447.80
2018-03-06T17:46:15.757Z,180.30
2018-03-06T17:48:43.299Z,68.17
2018-03-06T17:51:09.684Z,134.47
2018-03-06T17:53:36.080Z,72.17
2018-03-06T17:56:02.464Z,83.07
2018-03-06T17:58:31.019Z,63.60
2018-03-06T18:00:57.440Z,65.80
2018-03-06T18:03:23.903Z,78.13
2018-03-06T18:05:50.303Z,66.50
2018-03-06T18:08:16.710Z,72.10
2018-03-06T18:10:46.151Z,89.60
2018-03-06T18:13:12.576Z,68.00
2018-03-06T18:15:39.037Z,62.67
2018-03-06T18:18:06.320Z,64.23
2018-03-06T18:20:33.480Z,64.00
2018-03-06T18:23:00.778Z,69.80
2018-03-06T18:25:27.171Z,75.13
2018-03-06T18:27:53.571Z,82.47
2018-03-06T18:30:20.737Z,91.90
2018-03-06T18:32:47.867Z,71.33
2018-03-06T18:35:15.051Z,72.43
2018-03-06T18:37:41.450Z,75.00
2018-03-06T18:40:08.604Z,81.67
2018-03-06T18:42:35.782Z,75.30
2018-03-06T18:45:02.183Z,67.03
2018-03-06T18:47:29.319Z,73.40
2018-03-06T18:50:02.865Z,68.67
2018-03-06T18:52:29.264Z,67.77
2018-03-06T18:54:56.438Z,67.87
2018-03-06T18:57:22.864Z,65.27
2018-03-06T19:03:06.569Z,63.53
2018-03-06T19:05:57.942Z,63.10
2018-03-06T19:08:24.440Z,57.50
2018-03-06T19:10:50.838Z,65.70
2018-03-06T19:13:17.247Z,55.50
2018-03-06T19:15:43.654Z,64.53
2018-03-06T19:18:10.781Z,59.93
2018-03-06T19:20:37.166Z,59.10
2018-03-06T19:23:03.567Z,66.20
2018-03-06T19:25:30.683Z,83.00
2018-03-06T19:27:57.104Z,84.63
2018-03-06T19:30:23.512Z,82.23
2018-03-06T19:32:49.914Z,76.40
2018-03-06T19:35:17.055Z,74.30
2018-03-06T19:37:44.274Z,95.80
2018-03-06T19:40:10.683Z,72.70
2018-03-06T19:42:37.121Z,75.43
2018-03-06T19:45:03.554Z,76.53
2018-03-06T19:47:30.707Z,69.43
2018-03-06T19:49:57.141Z,76.90
2018-03-06T19:52:23.770Z,69.90
2018-03-06T19:54:50.190Z,80.97
2018-03-06T19:57:16.651Z,71.80
2018-03-06T19:59:43.084Z,88.73
2018-03-06T20:02:09.561Z,90.80
2018-03-06T20:04:36.726Z,80.53
2018-03-06T20:07:03.150Z,80.60
2018-03-06T20:09:30.327Z,67.00
2018-03-06T20:11:56.724Z,73.40
2018-03-06T20:14:30.091Z,74.87
2018-03-06T20:16:56.552Z,76.90
2018-03-06T20:19:29.090Z,76.20
2018-03-06T20:21:55.532Z,74.03
2018-03-06T20:24:27.958Z,71.43
2018-03-06T20:26:54.336Z,71.17
2018-03-06T20:29:20.739Z,69.30
2018-03-06T20:32:03.895Z,66.23
2018-03-06T20:34:30.391Z,69.20
2018-03-06T20:36:56.806Z,66.57
2018-03-06T20:39:29.411Z,74.30
2018-03-06T20:41:55.841Z,73.70
2018-03-06T20:44:22.275Z,61.00
2018-03-06T20:46:54.853Z,68.90
2018-03-06T20:49:21.284Z,80.07
2018-03-06T20:51:47.675Z,65.90
2018-03-06T20:54:20.291Z,68.13
2018-03-06T20:56:46.677Z,72.43
2018-03-06T20:59:13.088Z,79.37
2018-03-06T21:01:39.509Z,70.83
2018-03-06T21:04:05.988Z,72.43
2018-03-06T21:06:33.118Z,80.50
2018-03-06T21:08:59.535Z,77.10
2018-03-06T21:11:25.900Z,81.27
2018-03-06T21:13:53.082Z,94.70
2018-03-06T21:16:19.484Z,99.80
2018-03-06T21:18:45.891Z,103.37
2018-03-06T21:21:12.340Z,98.67
2018-03-06T21:23:39.474Z,107.53
2018-03-06T21:26:05.924Z,93.97
2018-03-06T21:28:32.322Z,94.47
2018-03-06T21:30:58.724Z,82.53
2018-03-06T21:33:25.155Z,105.50
2018-03-06T21:35:51.557Z,93.80
2018-03-06T21:38:18.007Z,86.60
2018-03-06T21:40:45.172Z,90.67
2018-03-06T21:43:11.591Z,83.53
2018-03-06T21:45:37.998Z,87.60
2018-03-06T21:48:04.370Z,86.97
2018-03-06T21:50:30.854Z,75.67
2018-03-06T21:55:23.544Z,79.60
2018-03-06T21:57:50.687Z,84.37
2018-03-06T22:00:17.808Z,80.57
2018-03-06T22:02:44.221Z,87.07
2018-03-06T22:05:10.696Z,85.87
2018-03-06T22:07:37.815Z,88.13
2018-03-06T22:10:04.222Z,96.97
2018-03-06T22:12:30.617Z,100.00
2018-03-06T22:14:57.754Z,97.83
2018-03-06T22:17:24.151Z,92.17
2018-03-06T22:19:50.552Z,90.50
2018-03-06T22:22:16.923Z,99.20
2018-03-06T22:24:43.323Z,112.50
2018-03-06T22:27:09.739Z,113.57
2018-03-06T22:29:36.907Z,110.73
2018-03-06T22:32:03.313Z,93.80
2018-03-06T22:34:30.520Z,91.03
2018-03-06T22:36:56.908Z,129.53
2018-03-06T22:39:24.063Z,137.13
2018-03-06T22:41:50.468Z,157.90
2018-03-06T22:44:17.594Z,98.33
2018-03-06T22:46:43.970Z,113.87
2018-03-06T22:49:10.363Z,135.83
2018-03-06T22:51:36.809Z,113.07
2018-03-06T22:54:03.208Z,131.53
2018-03-06T22:56:29.607Z,103.23
2018-03-06T22:58:56.015Z,104.23
2018-03-06T23:01:23.151Z,113.87
2018-03-06T23:03:49.517Z,113.97
2018-03-06T23:06:15.912Z,97.23
2018-03-06T23:08:42.300Z,98.20
2018-03-06T23:11:08.717Z,89.77
2018-03-06T23:13:35.148Z,85.30
2018-03-06T23:16:01.603Z,95.37
2018-03-06T23:18:27.977Z,102.83
2018-03-06T23:20:54.371Z,97.50
2018-03-06T23:23:20.775Z,108.60
2018-03-06T23:25:47.133Z,99.87
2018-03-06T23:28:13.503Z,112.45
2018-03-06T23:30:40.056Z,115.73
2018-03-06T23:33:06.472Z,116.47
2018-03-06T23:35:32.885Z,120.53
2018-03-06T23:37:59.259Z,122.68
2018-03-06T23:40:25.731Z,114.40
2018-03-06T23:42:52.119Z,109.50
2018-03-06T23:45:19.261Z,105.03
2018-03-06T23:47:46.367Z,125.63
2018-03-06T23:50:12.763Z,111.85
2018-03-06T23:52:39.163Z,125.07
2018-03-06T23:55:06.312Z,122.03
2018-03-06T23:57:32.692Z,128.17
2018-03-06T23:59:59.091Z,127.38
